sensor_id;sensor_type;location;lat;lon;timestamp;temperature;humidity
63897;DHT22;50063;52.084;5.414;2022-07-09T00:01:00;18.70;99.90
63897;DHT22;50063;52.084;5.414;2022-07-09T00:03:27;18.60;99.90
63897;DHT22;50063;52.084;5.414;2022-07-09T00:05:54;18.60;99.90
63897;DHT22;50063;52.084;5.414;2022-07-09T00:08:20;18.60;99.90
63897;DHT22;50063;52.084;5.414;2022-07-09T00:10:47;18.60;99.90
63897;DHT22;50063;52.084;5.414;2022-07-09T00:13:13;18.60;99.90
63897;DHT22;50063;52.084;5.414;2022-07-09T00:15:40;18.60;99.90
63897;DHT22;50063;52.084;5.414;2022-07-09T00:18:07;18.60;99.90
63897;DHT22;50063;52.084;5.414;2022-07-09T00:20:33;18.50;99.90
63897;DHT22;50063;52.084;5.414;2022-07-09T00:23:02;18.40;99.90
63897;DHT22;50063;52.084;5.414;2022-07-09T00:25:28;18.50;99.90
63897;DHT22;50063;52.084;5.414;2022-07-09T00:27:55;18.50;99.90
63897;DHT22;50063;52.084;5.414;2022-07-09T00:30:22;18.50;99.90
63897;DHT22;50063;52.084;5.414;2022-07-09T00:32:48;18.50;99.90
63897;DHT22;50063;52.084;5.414;2022-07-09T00:35:15;18.60;99.90
63897;DHT22;50063;52.084;5.414;2022-07-09T00:37:42;18.50;99.90
63897;DHT22;50063;52.084;5.414;2022-07-09T00:40:08;18.40;99.90
63897;DHT22;50063;52.084;5.414;2022-07-09T00:42:35;18.40;99.90
63897;DHT22;50063;52.084;5.414;2022-07-09T00:45:02;18.30;99.90
63897;DHT22;50063;52.084;5.414;2022-07-09T00:47:28;18.40;99.90
63897;DHT22;50063;52.084;5.414;2022-07-09T00:49:55;18.40;99.90
63897;DHT22;50063;52.084;5.414;2022-07-09T00:52:22;18.50;99.90
63897;DHT22;50063;52.084;5.414;2022-07-09T00:54:49;18.40;99.90
63897;DHT22;50063;52.084;5.414;2022-07-09T00:57:16;18.30;99.90
63897;DHT22;50063;52.084;5.414;2022-07-09T00:59:45;18.30;99.90
63897;DHT22;50063;52.084;5.414;2022-07-09T01:02:12;18.20;99.90
63897;DHT22;50063;52.084;5.414;2022-07-09T01:04:39;18.20;99.90
63897;DHT22;50063;52.084;5.414;2022-07-09T01:07:06;18.20;99.90
63897;DHT22;50063;52.084;5.414;2022-07-09T01:09:33;18.20;99.90
63897;DHT22;50063;52.084;5.414;2022-07-09T01:12:00;18.20;99.90
63897;DHT22;50063;52.084;5.414;2022-07-09T01:14:27;18.10;99.90
63897;DHT22;50063;52.084;5.414;2022-07-09T01:16:57;18.10;99.90
63897;DHT22;50063;52.084;5.414;2022-07-09T01:19:25;18.10;99.90
63897;DHT22;50063;52.084;5.414;2022-07-09T01:21:52;18.10;99.90
63897;DHT22;50063;52.084;5.414;2022-07-09T01:24:18;18.10;99.90
63897;DHT22;50063;52.084;5.414;2022-07-09T01:26:45;18.10;99.90
63897;DHT22;50063;52.084;5.414;2022-07-09T01:29:11;18.00;99.90
63897;DHT22;50063;52.084;5.414;2022-07-09T01:31:38;18.10;99.90
63897;DHT22;50063;52.084;5.414;2022-07-09T01:34:05;18.00;99.90
63897;DHT22;50063;52.084;5.414;2022-07-09T01:36:31;18.00;99.90
63897;DHT22;50063;52.084;5.414;2022-07-09T01:38:58;18.00;99.90
63897;DHT22;50063;52.084;5.414;2022-07-09T01:41:24;18.00;99.90
63897;DHT22;50063;52.084;5.414;2022-07-09T01:43:51;17.90;99.90
63897;DHT22;50063;52.084;5.414;2022-07-09T01:46:18;17.90;99.90
63897;DHT22;50063;52.084;5.414;2022-07-09T01:48:44;17.80;99.90
63897;DHT22;50063;52.084;5.414;2022-07-09T01:51:14;17.90;99.90
63897;DHT22;50063;52.084;5.414;2022-07-09T01:53:41;17.80;99.90
63897;DHT22;50063;52.084;5.414;2022-07-09T01:56:08;17.90;99.90
63897;DHT22;50063;52.084;5.414;2022-07-09T01:58:35;17.80;99.90
63897;DHT22;50063;52.084;5.414;2022-07-09T02:01:02;17.80;99.90
63897;DHT22;50063;52.084;5.414;2022-07-09T02:03:29;17.80;99.90
63897;DHT22;50063;52.084;5.414;2022-07-09T02:05:56;17.80;99.90
63897;DHT22;50063;52.084;5.414;2022-07-09T02:08:23;17.70;99.90
63897;DHT22;50063;52.084;5.414;2022-07-09T02:10:49;17.60;99.90
63897;DHT22;50063;52.084;5.414;2022-07-09T02:13:16;17.60;99.90
63897;DHT22;50063;52.084;5.414;2022-07-09T02:15:43;17.60;99.90
63897;DHT22;50063;52.084;5.414;2022-07-09T02:18:10;17.50;99.90
63897;DHT22;50063;52.084;5.414;2022-07-09T02:20:37;17.50;99.90
63897;DHT22;50063;52.084;5.414;2022-07-09T02:23:04;17.50;99.90
63897;DHT22;50063;52.084;5.414;2022-07-09T02:25:30;17.50;99.90
63897;DHT22;50063;52.084;5.414;2022-07-09T02:27:57;17.50;99.90
63897;DHT22;50063;52.084;5.414;2022-07-09T02:30:24;17.50;99.90
63897;DHT22;50063;52.084;5.414;2022-07-09T02:32:50;17.50;99.90
63897;DHT22;50063;52.084;5.414;2022-07-09T02:35:17;17.50;99.90
63897;DHT22;50063;52.084;5.414;2022-07-09T02:37:43;17.50;99.90
63897;DHT22;50063;52.084;5.414;2022-07-09T02:40:10;17.50;99.90
63897;DHT22;50063;52.084;5.414;2022-07-09T02:42:37;17.50;99.90
63897;DHT22;50063;52.084;5.414;2022-07-09T02:45:04;17.60;99.90
63897;DHT22;50063;52.084;5.414;2022-07-09T02:47:31;17.60;99.90
63897;DHT22;50063;52.084;5.414;2022-07-09T02:49:57;17.60;99.90
63897;DHT22;50063;52.084;5.414;2022-07-09T02:52:24;17.50;99.90
63897;DHT22;50063;52.084;5.414;2022-07-09T02:54:51;17.50;99.90
63897;DHT22;50063;52.084;5.414;2022-07-09T02:57:17;17.50;99.90
63897;DHT22;50063;52.084;5.414;2022-07-09T02:59:44;17.50;99.90
63897;DHT22;50063;52.084;5.414;2022-07-09T03:02:10;17.60;99.90
63897;DHT22;50063;52.084;5.414;2022-07-09T03:04:37;17.60;99.90
63897;DHT22;50063;52.084;5.414;2022-07-09T03:07:04;17.70;99.90
63897;DHT22;50063;52.084;5.414;2022-07-09T03:09:30;17.80;99.90
63897;DHT22;50063;52.084;5.414;2022-07-09T03:11:57;17.80;99.90
63897;DHT22;50063;52.084;5.414;2022-07-09T03:14:24;17.80;99.90
63897;DHT22;50063;52.084;5.414;2022-07-09T03:16:50;17.80;99.90
63897;DHT22;50063;52.084;5.414;2022-07-09T03:19:17;17.90;99.90
63897;DHT22;50063;52.084;5.414;2022-07-09T03:21:44;17.90;99.90
63897;DHT22;50063;52.084;5.414;2022-07-09T03:24:11;17.90;99.90
63897;DHT22;50063;52.084;5.414;2022-07-09T03:26:38;18.00;99.90
63897;DHT22;50063;52.084;5.414;2022-07-09T03:29:05;17.90;99.90
63897;DHT22;50063;52.084;5.414;2022-07-09T03:31:32;17.90;99.90
63897;DHT22;50063;52.084;5.414;2022-07-09T03:33:59;18.00;99.90
63897;DHT22;50063;52.084;5.414;2022-07-09T03:36:25;18.00;99.90
63897;DHT22;50063;52.084;5.414;2022-07-09T03:38:52;18.00;99.90
63897;DHT22;50063;52.084;5.414;2022-07-09T03:41:19;18.00;99.90
63897;DHT22;50063;52.084;5.414;2022-07-09T03:43:45;18.00;99.90
63897;DHT22;50063;52.084;5.414;2022-07-09T03:46:12;17.90;99.90
63897;DHT22;50063;52.084;5.414;2022-07-09T03:48:38;18.00;99.90
63897;DHT22;50063;52.084;5.414;2022-07-09T03:51:05;18.00;99.90
63897;DHT22;50063;52.084;5.414;2022-07-09T03:53:32;18.00;99.90
63897;DHT22;50063;52.084;5.414;2022-07-09T03:55:59;18.00;99.90
63897;DHT22;50063;52.084;5.414;2022-07-09T03:58:25;18.00;99.90
63897;DHT22;50063;52.084;5.414;2022-07-09T04:00:52;18.00;99.90
63897;DHT22;50063;52.084;5.414;2022-07-09T04:03:20;17.90;99.90
63897;DHT22;50063;52.084;5.414;2022-07-09T04:05:46;17.90;99.90
63897;DHT22;50063;52.084;5.414;2022-07-09T04:08:14;17.90;99.90
63897;DHT22;50063;52.084;5.414;2022-07-09T04:10:40;18.00;99.90
63897;DHT22;50063;52.084;5.414;2022-07-09T04:13:07;18.00;99.90
63897;DHT22;50063;52.084;5.414;2022-07-09T04:15:40;17.90;99.90
63897;DHT22;50063;52.084;5.414;2022-07-09T04:18:06;17.90;99.90
63897;DHT22;50063;52.084;5.414;2022-07-09T04:20:33;17.80;99.90
63897;DHT22;50063;52.084;5.414;2022-07-09T04:22:59;17.90;99.90
63897;DHT22;50063;52.084;5.414;2022-07-09T04:25:26;17.80;99.90
63897;DHT22;50063;52.084;5.414;2022-07-09T04:27:53;17.80;99.90
63897;DHT22;50063;52.084;5.414;2022-07-09T04:30:19;17.80;99.90
63897;DHT22;50063;52.084;5.414;2022-07-09T04:32:46;17.70;99.90
63897;DHT22;50063;52.084;5.414;2022-07-09T04:35:12;17.90;99.90
63897;DHT22;50063;52.084;5.414;2022-07-09T04:37:39;17.90;99.90
63897;DHT22;50063;52.084;5.414;2022-07-09T04:40:06;17.90;99.90
63897;DHT22;50063;52.084;5.414;2022-07-09T04:42:33;17.90;99.90
63897;DHT22;50063;52.084;5.414;2022-07-09T04:44:59;18.00;99.90
63897;DHT22;50063;52.084;5.414;2022-07-09T04:47:26;17.90;99.90
63897;DHT22;50063;52.084;5.414;2022-07-09T04:49:52;18.00;99.90
63897;DHT22;50063;52.084;5.414;2022-07-09T04:52:19;17.90;99.90
63897;DHT22;50063;52.084;5.414;2022-07-09T04:54:46;18.00;99.90
63897;DHT22;50063;52.084;5.414;2022-07-09T04:57:13;18.10;99.90
63897;DHT22;50063;52.084;5.414;2022-07-09T04:59:39;18.10;99.90
63897;DHT22;50063;52.084;5.414;2022-07-09T05:02:06;18.20;99.90
63897;DHT22;50063;52.084;5.414;2022-07-09T05:04:32;18.20;99.90
63897;DHT22;50063;52.084;5.414;2022-07-09T05:06:59;18.20;99.90
63897;DHT22;50063;52.084;5.414;2022-07-09T05:09:26;18.30;99.90
63897;DHT22;50063;52.084;5.414;2022-07-09T05:11:53;18.30;99.90
63897;DHT22;50063;52.084;5.414;2022-07-09T05:14:20;18.30;99.90
63897;DHT22;50063;52.084;5.414;2022-07-09T05:16:48;18.30;99.90
63897;DHT22;50063;52.084;5.414;2022-07-09T05:19:15;18.30;99.90
63897;DHT22;50063;52.084;5.414;2022-07-09T05:21:42;18.40;99.90
63897;DHT22;50063;52.084;5.414;2022-07-09T05:24:08;18.40;99.90
63897;DHT22;50063;52.084;5.414;2022-07-09T05:26:35;18.50;99.90
63897;DHT22;50063;52.084;5.414;2022-07-09T05:29:03;18.50;99.90
63897;DHT22;50063;52.084;5.414;2022-07-09T05:31:30;18.50;99.90
63897;DHT22;50063;52.084;5.414;2022-07-09T05:34:00;18.60;99.90
63897;DHT22;50063;52.084;5.414;2022-07-09T05:36:30;18.60;99.90
63897;DHT22;50063;52.084;5.414;2022-07-09T05:38:57;18.60;99.90
63897;DHT22;50063;52.084;5.414;2022-07-09T05:41:24;18.70;99.90
63897;DHT22;50063;52.084;5.414;2022-07-09T05:43:51;18.80;99.90
63897;DHT22;50063;52.084;5.414;2022-07-09T05:46:18;18.80;99.90
63897;DHT22;50063;52.084;5.414;2022-07-09T05:48:44;18.80;99.90
63897;DHT22;50063;52.084;5.414;2022-07-09T05:51:11;18.90;99.90
63897;DHT22;50063;52.084;5.414;2022-07-09T05:53:38;18.80;99.90
63897;DHT22;50063;52.084;5.414;2022-07-09T05:56:05;19.00;99.90
63897;DHT22;50063;52.084;5.414;2022-07-09T05:58:32;19.20;99.90
63897;DHT22;50063;52.084;5.414;2022-07-09T06:01:00;19.20;99.90
63897;DHT22;50063;52.084;5.414;2022-07-09T06:03:26;19.30;99.90
63897;DHT22;50063;52.084;5.414;2022-07-09T06:05:53;19.30;99.90
63897;DHT22;50063;52.084;5.414;2022-07-09T06:08:20;19.30;99.90
63897;DHT22;50063;52.084;5.414;2022-07-09T06:10:47;19.30;99.90
63897;DHT22;50063;52.084;5.414;2022-07-09T06:13:13;19.50;99.90
63897;DHT22;50063;52.084;5.414;2022-07-09T06:15:40;19.50;99.90
63897;DHT22;50063;52.084;5.414;2022-07-09T06:18:06;19.60;99.90
63897;DHT22;50063;52.084;5.414;2022-07-09T06:20:33;19.70;99.90
63897;DHT22;50063;52.084;5.414;2022-07-09T06:23:05;19.80;99.90
63897;DHT22;50063;52.084;5.414;2022-07-09T06:25:32;19.90;99.90
63897;DHT22;50063;52.084;5.414;2022-07-09T06:27:59;19.90;99.90
63897;DHT22;50063;52.084;5.414;2022-07-09T06:30:25;19.90;99.90
63897;DHT22;50063;52.084;5.414;2022-07-09T06:32:52;20.00;99.90
63897;DHT22;50063;52.084;5.414;2022-07-09T06:35:19;20.00;99.90
63897;DHT22;50063;52.084;5.414;2022-07-09T06:37:45;20.00;99.90
63897;DHT22;50063;52.084;5.414;2022-07-09T06:40:12;20.10;99.90
63897;DHT22;50063;52.084;5.414;2022-07-09T06:42:39;20.10;99.90
63897;DHT22;50063;52.084;5.414;2022-07-09T06:45:06;20.20;99.90
63897;DHT22;50063;52.084;5.414;2022-07-09T06:47:33;20.30;99.90
63897;DHT22;50063;52.084;5.414;2022-07-09T06:50:00;20.20;99.90
63897;DHT22;50063;52.084;5.414;2022-07-09T06:52:27;20.30;99.90
63897;DHT22;50063;52.084;5.414;2022-07-09T06:54:54;20.20;99.90
63897;DHT22;50063;52.084;5.414;2022-07-09T06:57:20;20.10;99.90
63897;DHT22;50063;52.084;5.414;2022-07-09T06:59:47;20.10;99.90
63897;DHT22;50063;52.084;5.414;2022-07-09T07:02:13;20.20;99.90
63897;DHT22;50063;52.084;5.414;2022-07-09T07:04:42;20.10;99.90
63897;DHT22;50063;52.084;5.414;2022-07-09T07:07:09;20.20;99.90
63897;DHT22;50063;52.084;5.414;2022-07-09T07:09:36;20.20;99.90
63897;DHT22;50063;52.084;5.414;2022-07-09T07:12:03;20.30;99.90
63897;DHT22;50063;52.084;5.414;2022-07-09T07:14:30;20.40;99.90
63897;DHT22;50063;52.084;5.414;2022-07-09T07:16:56;20.40;99.90
63897;DHT22;50063;52.084;5.414;2022-07-09T07:19:23;20.50;99.90
63897;DHT22;50063;52.084;5.414;2022-07-09T07:21:50;20.30;99.90
63897;DHT22;50063;52.084;5.414;2022-07-09T07:24:17;20.30;99.90
63897;DHT22;50063;52.084;5.414;2022-07-09T07:26:43;20.30;99.90
63897;DHT22;50063;52.084;5.414;2022-07-09T07:29:10;20.50;99.90
63897;DHT22;50063;52.084;5.414;2022-07-09T07:31:38;20.50;99.90
63897;DHT22;50063;52.084;5.414;2022-07-09T07:34:05;20.60;99.90
63897;DHT22;50063;52.084;5.414;2022-07-09T07:36:32;20.70;99.90
63897;DHT22;50063;52.084;5.414;2022-07-09T07:39:00;20.70;99.90
63897;DHT22;50063;52.084;5.414;2022-07-09T07:41:27;20.80;99.90
63897;DHT22;50063;52.084;5.414;2022-07-09T07:43:54;20.70;99.90
63897;DHT22;50063;52.084;5.414;2022-07-09T07:46:21;20.90;99.90
63897;DHT22;50063;52.084;5.414;2022-07-09T07:48:48;21.00;99.90
63897;DHT22;50063;52.084;5.414;2022-07-09T07:51:14;21.10;99.90
63897;DHT22;50063;52.084;5.414;2022-07-09T07:53:41;21.10;99.90
63897;DHT22;50063;52.084;5.414;2022-07-09T07:56:09;21.20;99.90
63897;DHT22;50063;52.084;5.414;2022-07-09T07:58:35;21.20;99.90
63897;DHT22;50063;52.084;5.414;2022-07-09T08:01:03;21.30;99.90
63897;DHT22;50063;52.084;5.414;2022-07-09T08:03:29;21.30;99.90
63897;DHT22;50063;52.084;5.414;2022-07-09T08:05:58;21.40;99.90
63897;DHT22;50063;52.084;5.414;2022-07-09T08:08:25;21.40;99.90
63897;DHT22;50063;52.084;5.414;2022-07-09T08:10:52;21.50;99.90
63897;DHT22;50063;52.084;5.414;2022-07-09T08:13:18;21.40;99.90
63897;DHT22;50063;52.084;5.414;2022-07-09T08:15:45;21.50;99.90
63897;DHT22;50063;52.084;5.414;2022-07-09T08:18:12;21.50;99.90
63897;DHT22;50063;52.084;5.414;2022-07-09T08:20:40;21.50;99.90
63897;DHT22;50063;52.084;5.414;2022-07-09T08:23:08;21.40;99.90
63897;DHT22;50063;52.084;5.414;2022-07-09T08:25:34;21.30;99.90
63897;DHT22;50063;52.084;5.414;2022-07-09T08:28:01;21.30;99.90
63897;DHT22;50063;52.084;5.414;2022-07-09T08:30:28;21.30;99.90
63897;DHT22;50063;52.084;5.414;2022-07-09T08:32:54;21.50;99.90
63897;DHT22;50063;52.084;5.414;2022-07-09T08:35:21;21.70;99.90
63897;DHT22;50063;52.084;5.414;2022-07-09T08:37:47;21.80;99.90
63897;DHT22;50063;52.084;5.414;2022-07-09T08:40:14;21.90;99.90
63897;DHT22;50063;52.084;5.414;2022-07-09T08:42:41;21.70;99.90
63897;DHT22;50063;52.084;5.414;2022-07-09T08:45:10;21.70;99.90
63897;DHT22;50063;52.084;5.414;2022-07-09T08:47:37;21.70;99.90
63897;DHT22;50063;52.084;5.414;2022-07-09T08:50:04;21.80;99.90
63897;DHT22;50063;52.084;5.414;2022-07-09T08:52:32;21.60;99.90
63897;DHT22;50063;52.084;5.414;2022-07-09T08:54:59;21.60;99.90
63897;DHT22;50063;52.084;5.414;2022-07-09T08:57:25;21.60;99.90
63897;DHT22;50063;52.084;5.414;2022-07-09T08:59:52;21.70;99.90
63897;DHT22;50063;52.084;5.414;2022-07-09T09:02:18;21.80;99.90
63897;DHT22;50063;52.084;5.414;2022-07-09T09:04:46;21.80;99.90
63897;DHT22;50063;52.084;5.414;2022-07-09T09:09:40;21.80;99.90
63897;DHT22;50063;52.084;5.414;2022-07-09T09:12:06;21.80;99.90
63897;DHT22;50063;52.084;5.414;2022-07-09T09:14:33;21.80;99.90
63897;DHT22;50063;52.084;5.414;2022-07-09T09:17:04;21.80;99.90
63897;DHT22;50063;52.084;5.414;2022-07-09T09:19:31;21.90;99.90
63897;DHT22;50063;52.084;5.414;2022-07-09T09:21:58;22.00;99.90
63897;DHT22;50063;52.084;5.414;2022-07-09T09:24:25;22.20;99.90
63897;DHT22;50063;52.084;5.414;2022-07-09T09:26:55;22.10;99.90
63897;DHT22;50063;52.084;5.414;2022-07-09T09:29:22;22.20;99.90
63897;DHT22;50063;52.084;5.414;2022-07-09T09:31:48;21.80;99.90
63897;DHT22;50063;52.084;5.414;2022-07-09T09:34:17;22.10;99.90
63897;DHT22;50063;52.084;5.414;2022-07-09T09:36:45;22.20;99.90
63897;DHT22;50063;52.084;5.414;2022-07-09T09:39:13;22.20;99.90
63897;DHT22;50063;52.084;5.414;2022-07-09T09:41:41;22.20;99.90
63897;DHT22;50063;52.084;5.414;2022-07-09T09:44:08;22.30;99.90
63897;DHT22;50063;52.084;5.414;2022-07-09T09:46:36;22.00;99.90
63897;DHT22;50063;52.084;5.414;2022-07-09T09:49:04;22.00;99.90
63897;DHT22;50063;52.084;5.414;2022-07-09T09:51:43;22.10;99.90
63897;DHT22;50063;52.084;5.414;2022-07-09T09:54:10;22.20;99.90
63897;DHT22;50063;52.084;5.414;2022-07-09T09:56:38;22.10;99.90
63897;DHT22;50063;52.084;5.414;2022-07-09T09:59:05;22.30;99.90
63897;DHT22;50063;52.084;5.414;2022-07-09T10:01:31;22.20;99.90
63897;DHT22;50063;52.084;5.414;2022-07-09T10:03:58;22.10;99.90
63897;DHT22;50063;52.084;5.414;2022-07-09T10:06:25;22.20;99.90
63897;DHT22;50063;52.084;5.414;2022-07-09T10:08:53;22.10;99.90
63897;DHT22;50063;52.084;5.414;2022-07-09T10:11:21;22.20;99.90
63897;DHT22;50063;52.084;5.414;2022-07-09T10:13:52;22.10;99.90
63897;DHT22;50063;52.084;5.414;2022-07-09T10:16:18;22.00;99.90
63897;DHT22;50063;52.084;5.414;2022-07-09T10:18:52;22.10;99.90
63897;DHT22;50063;52.084;5.414;2022-07-09T10:21:30;22.10;99.90
63897;DHT22;50063;52.084;5.414;2022-07-09T10:23:57;22.20;99.90
63897;DHT22;50063;52.084;5.414;2022-07-09T10:26:33;22.20;99.90
63897;DHT22;50063;52.084;5.414;2022-07-09T10:29:00;22.20;99.90
63897;DHT22;50063;52.084;5.414;2022-07-09T10:31:27;22.20;99.90
63897;DHT22;50063;52.084;5.414;2022-07-09T10:33:56;22.10;99.90
63897;DHT22;50063;52.084;5.414;2022-07-09T10:36:31;21.80;99.90
63897;DHT22;50063;52.084;5.414;2022-07-09T10:38:58;21.60;99.90
63897;DHT22;50063;52.084;5.414;2022-07-09T10:41:26;21.80;99.90
63897;DHT22;50063;52.084;5.414;2022-07-09T10:43:53;21.70;99.90
63897;DHT22;50063;52.084;5.414;2022-07-09T10:46:19;21.90;99.90
63897;DHT22;50063;52.084;5.414;2022-07-09T10:48:47;22.00;99.90
63897;DHT22;50063;52.084;5.414;2022-07-09T10:51:22;22.10;99.90
63897;DHT22;50063;52.084;5.414;2022-07-09T10:53:49;22.30;99.90
63897;DHT22;50063;52.084;5.414;2022-07-09T10:56:16;22.40;99.90
63897;DHT22;50063;52.084;5.414;2022-07-09T10:58:45;22.50;99.90
63897;DHT22;50063;52.084;5.414;2022-07-09T11:01:11;22.50;99.90
63897;DHT22;50063;52.084;5.414;2022-07-09T11:03:46;22.40;99.90
63897;DHT22;50063;52.084;5.414;2022-07-09T11:06:14;22.30;99.90
63897;DHT22;50063;52.084;5.414;2022-07-09T11:08:41;22.60;99.90
63897;DHT22;50063;52.084;5.414;2022-07-09T11:11:08;22.80;99.90
63897;DHT22;50063;52.084;5.414;2022-07-09T11:13:34;23.00;99.90
63897;DHT22;50063;52.084;5.414;2022-07-09T11:16:01;23.00;99.90
63897;DHT22;50063;52.084;5.414;2022-07-09T11:18:28;23.10;99.90
63897;DHT22;50063;52.084;5.414;2022-07-09T11:20:55;23.20;99.90
63897;DHT22;50063;52.084;5.414;2022-07-09T11:23:22;23.00;99.90
63897;DHT22;50063;52.084;5.414;2022-07-09T11:25:49;23.20;99.90
63897;DHT22;50063;52.084;5.414;2022-07-09T11:28:22;23.30;99.90
63897;DHT22;50063;52.084;5.414;2022-07-09T11:33:24;23.40;99.90
63897;DHT22;50063;52.084;5.414;2022-07-09T11:35:51;23.30;99.90
63897;DHT22;50063;52.084;5.414;2022-07-09T11:38:18;22.70;99.90
63897;DHT22;50063;52.084;5.414;2022-07-09T11:40:44;22.90;99.90
63897;DHT22;50063;52.084;5.414;2022-07-09T11:43:14;22.90;99.90
63897;DHT22;50063;52.084;5.414;2022-07-09T11:45:51;22.50;99.90
63897;DHT22;50063;52.084;5.414;2022-07-09T11:48:18;22.60;99.90
63897;DHT22;50063;52.084;5.414;2022-07-09T11:50:45;22.70;99.90
63897;DHT22;50063;52.084;5.414;2022-07-09T11:53:21;22.80;99.90
63897;DHT22;50063;52.084;5.414;2022-07-09T11:56:00;22.70;99.90
63897;DHT22;50063;52.084;5.414;2022-07-09T11:58:27;22.90;99.90
63897;DHT22;50063;52.084;5.414;2022-07-09T12:00:54;22.90;99.90
63897;DHT22;50063;52.084;5.414;2022-07-09T12:03:24;23.20;99.90
63897;DHT22;50063;52.084;5.414;2022-07-09T12:05:51;23.00;99.90
63897;DHT22;50063;52.084;5.414;2022-07-09T12:08:31;23.20;99.90
63897;DHT22;50063;52.084;5.414;2022-07-09T12:10:58;23.40;99.90
63897;DHT22;50063;52.084;5.414;2022-07-09T12:13:25;23.40;99.90
63897;DHT22;50063;52.084;5.414;2022-07-09T12:15:52;23.50;99.90
63897;DHT22;50063;52.084;5.414;2022-07-09T12:18:19;23.30;99.90
63897;DHT22;50063;52.084;5.414;2022-07-09T12:20:46;23.50;99.90
63897;DHT22;50063;52.084;5.414;2022-07-09T12:23:12;23.40;99.90
63897;DHT22;50063;52.084;5.414;2022-07-09T12:25:39;23.80;99.90
63897;DHT22;50063;52.084;5.414;2022-07-09T12:28:06;23.80;99.90
63897;DHT22;50063;52.084;5.414;2022-07-09T12:30:33;24.00;99.90
63897;DHT22;50063;52.084;5.414;2022-07-09T12:32:59;24.10;99.90
63897;DHT22;50063;52.084;5.414;2022-07-09T12:35:26;23.80;99.90
63897;DHT22;50063;52.084;5.414;2022-07-09T12:37:53;23.60;99.90
63897;DHT22;50063;52.084;5.414;2022-07-09T12:40:22;23.70;99.90
63897;DHT22;50063;52.084;5.414;2022-07-09T12:42:49;23.90;99.90
63897;DHT22;50063;52.084;5.414;2022-07-09T12:45:15;23.70;99.90
63897;DHT22;50063;52.084;5.414;2022-07-09T12:47:42;24.10;99.90
63897;DHT22;50063;52.084;5.414;2022-07-09T12:50:09;24.00;99.90
63897;DHT22;50063;52.084;5.414;2022-07-09T12:52:38;24.50;99.90
63897;DHT22;50063;52.084;5.414;2022-07-09T12:55:04;24.60;99.90
63897;DHT22;50063;52.084;5.414;2022-07-09T12:57:31;24.90;99.90
63897;DHT22;50063;52.084;5.414;2022-07-09T12:59:58;25.30;99.90
63897;DHT22;50063;52.084;5.414;2022-07-09T13:02:24;25.40;99.90
63897;DHT22;50063;52.084;5.414;2022-07-09T13:04:52;24.90;99.90
63897;DHT22;50063;52.084;5.414;2022-07-09T13:07:18;25.20;99.90
63897;DHT22;50063;52.084;5.414;2022-07-09T13:09:45;25.60;99.90
63897;DHT22;50063;52.084;5.414;2022-07-09T13:12:12;25.90;99.90
63897;DHT22;50063;52.084;5.414;2022-07-09T13:14:38;26.00;99.90
63897;DHT22;50063;52.084;5.414;2022-07-09T13:17:05;25.50;99.90
63897;DHT22;50063;52.084;5.414;2022-07-09T13:19:51;25.90;99.90
63897;DHT22;50063;52.084;5.414;2022-07-09T13:22:18;26.70;99.90
63897;DHT22;50063;52.084;5.414;2022-07-09T13:24:45;26.90;99.90
63897;DHT22;50063;52.084;5.414;2022-07-09T13:27:12;27.00;99.90
63897;DHT22;50063;52.084;5.414;2022-07-09T13:29:39;26.80;99.90
63897;DHT22;50063;52.084;5.414;2022-07-09T13:32:06;26.30;99.90
63897;DHT22;50063;52.084;5.414;2022-07-09T13:34:33;26.30;99.90
63897;DHT22;50063;52.084;5.414;2022-07-09T13:37:00;26.50;99.90
63897;DHT22;50063;52.084;5.414;2022-07-09T13:39:27;26.40;99.90
63897;DHT22;50063;52.084;5.414;2022-07-09T13:41:54;26.50;99.90
63897;DHT22;50063;52.084;5.414;2022-07-09T13:44:21;26.40;99.90
63897;DHT22;50063;52.084;5.414;2022-07-09T13:46:48;26.50;99.90
63897;DHT22;50063;52.084;5.414;2022-07-09T13:49:15;26.40;99.90
63897;DHT22;50063;52.084;5.414;2022-07-09T13:51:48;26.90;99.90
63897;DHT22;50063;52.084;5.414;2022-07-09T13:54:15;26.90;99.90
63897;DHT22;50063;52.084;5.414;2022-07-09T13:56:42;26.70;99.90
63897;DHT22;50063;52.084;5.414;2022-07-09T13:59:09;26.80;99.90
63897;DHT22;50063;52.084;5.414;2022-07-09T14:01:35;26.90;99.90
63897;DHT22;50063;52.084;5.414;2022-07-09T14:04:02;26.90;99.90
63897;DHT22;50063;52.084;5.414;2022-07-09T14:06:29;26.90;99.90
63897;DHT22;50063;52.084;5.414;2022-07-09T14:09:11;26.80;99.90
63897;DHT22;50063;52.084;5.414;2022-07-09T14:11:37;27.20;99.90
63897;DHT22;50063;52.084;5.414;2022-07-09T14:14:04;26.80;99.90
63897;DHT22;50063;52.084;5.414;2022-07-09T14:16:30;26.20;99.90
63897;DHT22;50063;52.084;5.414;2022-07-09T14:18:57;26.60;99.90
63897;DHT22;50063;52.084;5.414;2022-07-09T14:21:24;27.30;99.90
63897;DHT22;50063;52.084;5.414;2022-07-09T14:23:50;27.60;99.90
63897;DHT22;50063;52.084;5.414;2022-07-09T14:26:17;28.00;99.90
63897;DHT22;50063;52.084;5.414;2022-07-09T14:28:44;27.80;99.90
63897;DHT22;50063;52.084;5.414;2022-07-09T14:31:10;27.50;99.90
63897;DHT22;50063;52.084;5.414;2022-07-09T14:33:37;28.00;99.90
63897;DHT22;50063;52.084;5.414;2022-07-09T14:36:04;28.80;99.90
63897;DHT22;50063;52.084;5.414;2022-07-09T14:38:32;29.10;99.90
63897;DHT22;50063;52.084;5.414;2022-07-09T14:40:58;29.00;99.80
63897;DHT22;50063;52.084;5.414;2022-07-09T14:43:25;28.60;99.70
63897;DHT22;50063;52.084;5.414;2022-07-09T14:45:53;28.70;99.90
63897;DHT22;50063;52.084;5.414;2022-07-09T14:48:20;28.80;99.90
63897;DHT22;50063;52.084;5.414;2022-07-09T14:50:46;28.60;99.90
63897;DHT22;50063;52.084;5.414;2022-07-09T14:53:13;29.20;99.90
63897;DHT22;50063;52.084;5.414;2022-07-09T14:55:39;29.40;99.90
63897;DHT22;50063;52.084;5.414;2022-07-09T14:58:06;28.80;97.30
63897;DHT22;50063;52.084;5.414;2022-07-09T15:00:33;27.80;97.80
63897;DHT22;50063;52.084;5.414;2022-07-09T15:02:59;27.70;98.20
63897;DHT22;50063;52.084;5.414;2022-07-09T15:05:27;28.40;97.50
63897;DHT22;50063;52.084;5.414;2022-07-09T15:07:54;28.50;98.90
63897;DHT22;50063;52.084;5.414;2022-07-09T15:10:21;28.10;97.50
63897;DHT22;50063;52.084;5.414;2022-07-09T15:12:50;27.80;97.20
63897;DHT22;50063;52.084;5.414;2022-07-09T15:15:16;27.70;98.10
63897;DHT22;50063;52.084;5.414;2022-07-09T15:17:44;27.50;98.60
63897;DHT22;50063;52.084;5.414;2022-07-09T15:20:11;27.60;98.60
63897;DHT22;50063;52.084;5.414;2022-07-09T15:22:38;27.60;98.40
63897;DHT22;50063;52.084;5.414;2022-07-09T15:25:05;28.40;98.10
63897;DHT22;50063;52.084;5.414;2022-07-09T15:27:32;28.10;97.50
63897;DHT22;50063;52.084;5.414;2022-07-09T15:29:59;28.20;97.30
63897;DHT22;50063;52.084;5.414;2022-07-09T15:32:26;28.30;96.80
63897;DHT22;50063;52.084;5.414;2022-07-09T15:34:53;28.90;97.70